Time;durP1;ratioP1;P1;durP2;ratioP2;P2;SDS_P1;SDS_P2;PMS_P1;PMS_P2;Temp;Humidity;BMP_temperature;BMP_pressure;BME280_temperature;BME280_humidity;BME280_pressure;Samples;Min_cycle;Max_cycle;Signal;HPM_P1;HPM_P2
2023/06/29 00:00:21;;;;;;;22.25;17.20;;;;;;;19.73;84.36;101604.44;5023379;28;20136;-63
2023/06/29 00:02:47;;;;;;;;;;;;;;;19.89;83.95;101599.59;5023922;28;20057;-63
2023/06/29 00:05:12;;;;;;;25.77;18.58;;;;;;;19.74;83.55;101605.28;5025298;28;19998;-63
2023/06/29 00:07:38;;;;;;;23.48;17.48;;;;;;;19.71;84.08;101597.63;5027448;28;20032;-63
2023/06/29 00:10:05;;;;;;;24.50;17.63;;;;;;;19.67;84.13;101594.53;5024136;28;20102;-63
2023/06/29 00:12:30;;;;;;;24.65;17.13;;;;;;;19.67;84.28;101591.00;5028067;28;20051;-63
2023/06/29 00:14:55;;;;;;;30.40;19.13;;;;;;;19.72;84.35;101591.19;5020211;28;20029;-63
2023/06/29 00:17:21;;;;;;;29.95;20.15;;;;;;;19.67;83.90;101581.03;5027135;28;20566;-63
2023/06/29 00:19:50;;;;;;;31.75;19.58;;;;;;;19.70;84.01;101583.31;5019794;28;20045;-63
2023/06/29 00:22:15;;;;;;;30.92;20.65;;;;;;;19.72;83.82;101585.78;5020329;28;20021;-63
2023/06/29 00:24:44;;;;;;;25.92;18.23;;;;;;;19.73;84.33;101579.38;5025620;28;20092;-63
2023/06/29 00:27:11;;;;;;;28.73;19.23;;;;;;;19.76;84.48;101578.94;5023030;28;20029;-63
2023/06/29 00:29:38;;;;;;;24.48;18.20;;;;;;;19.75;84.26;101574.59;5026232;28;20029;-63
2023/06/29 00:32:04;;;;;;;28.20;19.25;;;;;;;19.75;83.93;101577.28;5022464;28;20021;-63
2023/06/29 00:34:29;;;;;;;26.73;18.42;;;;;;;19.79;83.94;101570.41;5028868;28;20600;-63
2023/06/29 00:36:54;;;;;;;26.95;17.80;;;;;;;19.82;83.75;101571.84;5022570;28;20029;-63
2023/06/29 00:39:20;;;;;;;24.83;17.85;;;;;;;19.81;84.05;101565.63;5029236;28;20716;-63
2023/06/29 00:41:54;;;;;;;25.60;18.38;;;;;;;19.83;84.34;101568.94;5023433;28;20018;-63
2023/06/29 00:44:20;;;;;;;27.83;18.20;;;;;;;19.80;84.06;101556.72;5023059;28;20036;-63
2023/06/29 00:46:46;;;;;;;24.00;18.15;;;;;;;19.82;84.14;101569.97;5029586;28;20386;-63
2023/06/29 00:49:12;;;;;;;25.33;18.70;;;;;;;19.81;84.32;101568.34;5027139;28;20029;-63
2023/06/29 00:51:37;;;;;;;25.13;18.63;;;;;;;19.79;84.36;101565.03;5020856;28;20045;-63
2023/06/29 00:54:03;;;;;;;27.60;19.13;;;;;;;19.77;84.68;101562.53;5020594;28;20034;-63
2023/06/29 00:56:30;;;;;;;25.33;19.17;;;;;;;19.77;84.69;101559.03;5024279;28;20117;-63
2023/06/29 00:58:56;;;;;;;24.77;18.70;;;;;;;19.76;84.64;101560.88;5026355;28;20021;-63
2023/06/29 01:01:21;;;;;;;26.17;18.48;;;;;;;19.80;84.48;101547.81;5021684;28;20052;-63
2023/06/29 01:03:46;;;;;;;28.30;19.95;;;;;;;19.80;84.45;101547.81;5022025;28;20045;-63
2023/06/29 01:06:16;;;;;;;27.25;19.58;;;;;;;19.79;84.55;101549.69;5016534;28;20030;-63
2023/06/29 01:08:45;;;;;;;31.85;20.75;;;;;;;19.80;84.29;101545.13;5022469;28;20033;-63
2023/06/29 01:11:12;;;;;;;29.15;20.08;;;;;;;19.80;84.37;101542.41;5022437;28;20037;-63
2023/06/29 01:13:39;;;;;;;30.02;20.30;;;;;;;19.73;84.14;101544.31;5020900;28;20037;-63
2023/06/29 01:16:06;;;;;;;28.17;20.63;;;;;;;19.70;84.38;101537.50;5023458;28;20034;-63
2023/06/29 01:18:33;;;;;;;30.48;21.05;;;;;;;19.64;84.63;101542.88;5021221;28;20514;-63
2023/06/29 01:21:00;;;;;;;31.45;21.00;;;;;;;19.56;84.41;101543.13;5018436;28;20057;-63
2023/06/29 01:23:29;;;;;;;34.45;22.15;;;;;;;19.47;84.83;101539.81;5019316;28;20079;-63
2023/06/29 01:25:56;;;;;;;30.42;21.60;;;;;;;19.38;84.90;101539.25;5026076;28;20025;-63
2023/06/29 01:28:21;;;;;;;32.67;21.73;;;;;;;19.33;85.05;101539.00;5027468;28;20040;-63
2023/06/29 01:30:50;;;;;;;32.80;21.83;;;;;;;19.34;85.72;101537.16;5025236;28;20033;-63
2023/06/29 01:33:17;;;;;;;35.07;23.20;;;;;;;19.28;85.82;101529.91;5025614;28;20022;-63
2023/06/29 01:35:44;;;;;;;32.00;22.55;;;;;;;19.26;85.98;101543.59;5021951;28;20288;-63
2023/06/29 01:38:15;;;;;;;32.08;22.40;;;;;;;19.22;86.21;101536.97;5022201;28;20025;-62
2023/06/29 01:40:45;;;;;;;35.78;22.70;;;;;;;19.23;86.43;101541.31;5019703;28;20026;-63
2023/06/29 01:43:11;;;;;;;32.15;22.60;;;;;;;19.18;86.40;101528.50;5021270;28;20021;-63
2023/06/29 01:45:37;;;;;;;30.20;22.75;;;;;;;19.20;86.77;101530.97;5025112;28;20022;-63
2023/06/29 01:48:03;;;;;;;33.38;22.55;;;;;;;19.21;87.08;101524.56;5026223;28;20034;-63
2023/06/29 01:50:29;;;;;;;32.92;23.45;;;;;;;19.24;86.97;101534.91;5023659;28;20018;-63
2023/06/29 01:52:54;;;;;;;33.97;22.85;;;;;;;19.25;87.01;101523.09;5023388;28;20056;-63
2023/06/29 01:55:20;;;;;;;31.17;21.52;;;;;;;19.31;86.92;101524.94;5022900;28;20148;-63
2023/06/29 01:57:45;;;;;;;36.30;22.80;;;;;;;19.35;87.09;101522.66;5020524;28;20063;-63
2023/06/29 02:00:11;;;;;;;32.55;22.73;;;;;;;19.34;87.33;101527.19;5019425;28;20028;-63
2023/06/29 02:02:37;;;;;;;30.88;22.08;;;;;;;19.32;87.09;101526.59;5027118;28;20033;-63
2023/06/29 02:05:03;;;;;;;32.22;21.60;;;;;;;19.36;87.12;101513.53;5015994;28;20025;-63
2023/06/29 02:07:29;;;;;;;31.00;22.90;;;;;;;19.35;86.95;101514.56;5028090;28;20418;-63
2023/06/29 02:09:54;;;;;;;37.67;24.48;;;;;;;19.34;87.47;101516.44;5025982;28;20539;-64
2023/06/29 02:12:19;;;;;;;38.63;22.95;;;;;;;19.35;87.14;101514.56;5025419;28;20040;-63
2023/06/29 02:14:45;;;;;;;32.17;22.55;;;;;;;19.36;87.32;101517.03;5017272;28;20546;-63
2023/06/29 02:17:10;;;;;;;33.50;23.33;;;;;;;19.34;87.62;101512.91;5020879;28;20159;-63
2023/06/29 02:19:35;;;;;;;36.30;23.63;;;;;;;19.36;87.66;101511.66;5015943;28;20029;-63
2023/06/29 02:22:00;;;;;;;35.85;23.95;;;;;;;19.36;87.57;101516.22;5019077;28;20111;-63
2023/06/29 02:24:26;;;;;;;30.88;22.30;;;;;;;19.33;87.42;101505.88;5025344;28;20044;-63
2023/06/29 02:26:51;;;;;;;33.63;23.50;;;;;;;19.23;87.59;101494.72;5016693;28;20021;-64
2023/06/29 02:29:16;;;;;;;31.73;22.75;;;;;;;19.31;87.69;101503.38;5024959;28;20032;-63
2023/06/29 02:31:41;;;;;;;34.05;22.23;;;;;;;19.34;88.00;101502.97;5024164;28;20402;-63
2023/06/29 02:34:07;;;;;;;33.65;23.45;;;;;;;19.34;88.29;101497.56;5027484;28;20029;-64
2023/06/29 02:36:32;;;;;;;35.17;23.67;;;;;;;19.31;88.64;101495.31;5028038;28;20037;-63
2023/06/29 02:38:57;;;;;;;35.53;24.33;;;;;;;19.32;88.66;101491.56;5026993;28;20022;-63
2023/06/29 02:41:23;;;;;;;37.83;24.23;;;;;;;19.34;89.07;101492.19;5026579;28;20087;-63
2023/06/29 02:43:48;;;;;;;34.90;23.15;;;;;;;19.35;88.69;101488.47;5017035;28;20030;-63
2023/06/29 02:46:13;;;;;;;32.70;23.63;;;;;;;19.34;88.75;101480.59;5022268;28;20024;-63
2023/06/29 02:48:39;;;;;;;32.28;23.33;;;;;;;19.37;88.76;101488.25;5021463;28;20049;-64
2023/06/29 02:51:05;;;;;;;34.78;24.25;;;;;;;19.38;88.82;101482.66;5025916;28;20025;-63
2023/06/29 02:53:30;;;;;;;37.40;23.80;;;;;;;19.37;88.65;101486.41;5027108;28;20086;-63
2023/06/29 02:55:56;;;;;;;34.63;24.33;;;;;;;19.41;88.59;101482.25;5028136;28;20506;-63
2023/06/29 02:58:21;;;;;;;35.92;24.30;;;;;;;19.42;88.64;101475.00;5024328;28;20133;-64
2023/06/29 03:00:46;;;;;;;31.40;23.23;;;;;;;19.42;88.71;101480.38;5023744;28;20459;-63
2023/06/29 03:03:11;;;;;;;37.10;24.45;;;;;;;19.39;88.79;101478.13;5016210;28;20021;-63
2023/06/29 03:05:37;;;;;;;32.05;23.50;;;;;;;19.40;88.73;101477.91;5022521;28;20022;-63
2023/06/29 03:08:03;;;;;;;34.50;24.38;;;;;;;19.37;88.49;101478.31;5017211;28;20388;-63
2023/06/29 03:10:28;;;;;;;38.20;24.27;;;;;;;19.31;88.65;101473.75;5021218;28;20112;-63
2023/06/29 03:12:54;;;;;;;32.72;24.02;;;;;;;19.28;88.42;101478.75;5032514;28;20159;-63
2023/06/29 03:15:19;;;;;;;38.85;24.70;;;;;;;19.23;88.18;101479.41;5028703;28;20041;-63
2023/06/29 03:17:44;;;;;;;34.20;24.10;;;;;;;19.16;89.17;101475.91;5028588;28;20048;-63
2023/06/29 03:20:13;;;;;;;35.88;24.85;;;;;;;19.12;88.75;101471.97;5030621;28;20581;-63
2023/06/29 03:22:38;;;;;;;38.63;24.88;;;;;;;19.07;88.93;101467.19;5022654;28;20109;-63
2023/06/29 03:25:04;;;;;;;36.67;25.33;;;;;;;19.03;88.82;101473.22;5016273;28;20112;-63
2023/06/29 03:27:29;;;;;;;38.13;24.75;;;;;;;19.00;89.29;101479.84;5022466;28;20033;-63
2023/06/29 03:29:54;;;;;;;36.47;24.80;;;;;;;19.00;89.29;101468.25;5028772;28;20017;-64
2023/06/29 03:32:20;;;;;;;38.17;25.63;;;;;;;18.97;89.27;101469.50;5023771;28;20033;-63
2023/06/29 03:34:45;;;;;;;40.63;26.25;;;;;;;18.96;89.40;101473.25;5025271;28;20029;-63
2023/06/29 03:37:10;;;;;;;30.88;23.48;;;;;;;18.97;89.93;101466.00;5028737;28;20057;-63
2023/06/29 03:39:36;;;;;;;36.63;23.95;;;;;;;18.96;89.62;101465.16;5026963;28;20048;-63
2023/06/29 03:42:01;;;;;;;37.92;25.42;;;;;;;18.97;89.41;101458.75;5030749;28;20074;-63
2023/06/29 03:44:26;;;;;;;41.25;26.30;;;;;;;18.94;89.33;101461.03;5031097;28;20029;-63
2023/06/29 03:46:52;;;;;;;38.33;24.92;;;;;;;18.95;89.33;101458.13;5028809;28;20631;-63
2023/06/29 03:49:17;;;;;;;39.45;26.08;;;;;;;18.91;89.40;101459.59;5023035;28;20041;-63
2023/06/29 03:51:42;;;;;;;41.13;25.65;;;;;;;18.91;89.29;101464.16;5029604;28;20021;-63
2023/06/29 03:54:08;;;;;;;37.15;25.13;;;;;;;18.91;89.54;101469.53;5030137;28;20025;-63
2023/06/29 03:56:33;;;;;;;37.15;26.02;;;;;;;18.90;89.44;101467.88;5035199;28;20029;-63
2023/06/29 03:58:58;;;;;;;38.70;25.38;;;;;;;18.88;89.60;101460.84;5030699;28;20026;-63
2023/06/29 04:01:24;;;;;;;39.33;25.83;;;;;;;18.87;89.51;101453.81;5029191;28;20013;-63
2023/06/29 04:03:49;;;;;;;38.15;25.23;;;;;;;18.82;89.79;101445.53;5030396;28;20028;-63
2023/06/29 04:06:15;;;;;;;40.95;25.08;;;;;;;18.87;89.82;101453.81;5030024;28;20033;-63
2023/06/29 04:08:40;;;;;;;39.70;24.80;;;;;;;18.87;89.83;101451.13;5028957;28;20498;-63
2023/06/29 04:11:05;;;;;;;38.95;25.05;;;;;;;18.87;89.45;101453.81;5020856;28;20044;-63
2023/06/29 04:13:30;;;;;;;37.08;25.02;;;;;;;18.88;89.54;101449.25;5030745;28;20487;-63
2023/06/29 04:15:56;;;;;;;38.88;25.25;;;;;;;18.88;89.41;101450.09;5028855;28;20022;-64
2023/06/29 04:18:21;;;;;;;36.72;24.85;;;;;;;18.90;89.73;101451.72;5030790;28;20511;-63
2023/06/29 04:20:46;;;;;;;39.25;25.23;;;;;;;18.90;89.78;101449.03;5026237;28;20121;-63
2023/06/29 04:23:15;;;;;;;40.85;25.52;;;;;;;18.90;89.76;101452.56;5026506;28;20079;-63
2023/06/29 04:25:42;;;;;;;38.92;26.20;;;;;;;18.90;89.93;101440.97;5027002;28;20033;-63
2023/06/29 04:28:08;;;;;;;37.00;25.02;;;;;;;18.90;90.09;101444.47;5030095;28;20051;-63
2023/06/29 04:30:36;;;;;;;39.20;25.25;;;;;;;18.90;89.80;101440.97;5021942;28;20045;-63
2023/06/29 04:33:09;;;;;;;37.97;24.67;;;;;;;18.90;89.81;101438.28;5022912;28;20028;-63
2023/06/29 04:35:35;;;;;;;38.92;25.38;;;;;;;18.90;90.01;101440.97;5022256;28;20017;-63
2023/06/29 04:38:00;;;;;;;35.78;24.70;;;;;;;18.92;90.03;101438.88;5027394;28;20397;-63
2023/06/29 04:40:25;;;;;;;39.17;26.05;;;;;;;18.92;89.97;101442.41;5024612;28;20038;-63
2023/06/29 04:42:55;;;;;;;41.42;24.55;;;;;;;18.92;90.16;101444.28;5026878;28;20025;-63
2023/06/29 04:45:20;;;;;;;;;;;;;;;18.96;89.94;101440.13;5029760;28;20025;-63
2023/06/29 04:47:49;;;;;;;37.73;25.63;;;;;;;18.91;89.96;101430.00;5025805;28;20432;-63
2023/06/29 04:50:14;;;;;;;40.67;25.95;;;;;;;18.91;89.99;101431.84;5025874;28;21225;-64
2023/06/29 04:52:40;;;;;;;43.40;26.60;;;;;;;18.91;90.06;101423.78;5023407;28;20033;-63
2023/06/29 04:55:07;;;;;;;42.20;27.45;;;;;;;18.90;90.27;101430.19;5029615;28;20056;-63
2023/06/29 04:57:32;;;;;;;42.20;26.40;;;;;;;18.90;90.38;101424.81;5027881;28;20041;-63
2023/06/29 04:59:58;;;;;;;40.47;26.30;;;;;;;18.92;90.26;101428.94;5021018;28;20096;-64
2023/06/29 05:02:23;;;;;;;41.47;26.40;;;;;;;18.90;90.59;101422.97;5027483;28;20035;-63
2023/06/29 05:04:49;;;;;;;39.20;26.52;;;;;;;18.93;90.73;101435.97;5027788;28;20020;-63
2023/06/29 05:07:15;;;;;;;41.45;27.45;;;;;;;18.93;90.66;101433.28;5022014;28;20021;-63
2023/06/29 05:09:40;;;;;;;42.30;27.05;;;;;;;18.93;90.98;101430.59;5022863;28;20032;-63
2023/06/29 05:12:06;;;;;;;40.95;27.27;;;;;;;18.96;91.16;101429.34;5026230;28;20060;-63
2023/06/29 05:14:32;;;;;;;37.90;26.92;;;;;;;18.94;91.12;101426.88;5024157;28;20484;-63
2023/06/29 05:16:57;;;;;;;43.85;27.63;;;;;;;18.96;91.35;101426.66;5027222;28;20018;-63
2023/06/29 05:19:22;;;;;;;44.17;27.92;;;;;;;18.97;91.44;101428.31;5028638;28;20025;-63
2023/06/29 05:21:48;;;;;;;40.72;27.20;;;;;;;18.97;91.50;101429.13;5029172;28;20040;-63
2023/06/29 05:24:13;;;;;;;43.92;27.45;;;;;;;18.97;91.51;101429.13;5027308;28;20037;-64
2023/06/29 05:26:38;;;;;;;43.42;28.23;;;;;;;19.00;91.56;101425.19;5028015;28;20048;-63
2023/06/29 05:29:03;;;;;;;44.33;28.27;;;;;;;19.00;91.55;101415.25;5025192;28;20020;-63
2023/06/29 05:31:29;;;;;;;39.67;27.65;;;;;;;18.96;91.31;101421.28;5021264;28;20048;-63
2023/06/29 05:33:54;;;;;;;41.58;27.25;;;;;;;18.97;91.52;101418.38;5017615;28;20501;-63
2023/06/29 05:36:20;;;;;;;39.80;28.33;;;;;;;18.98;91.40;101413.81;5023357;28;20526;-63
2023/06/29 05:38:45;;;;;;;40.92;27.77;;;;;;;18.96;91.11;101407.81;5029697;28;20030;-63
2023/06/29 05:41:10;;;;;;;43.88;27.83;;;;;;;18.98;91.21;101420.03;5023386;28;20602;-64
2023/06/29 05:43:35;;;;;;;41.20;27.80;;;;;;;19.00;91.16;101417.13;5024038;28;20074;-63
2023/06/29 05:46:01;;;;;;;40.70;27.13;;;;;;;19.00;91.04;101420.63;5020712;28;20025;-63
2023/06/29 05:48:26;;;;;;;39.88;28.23;;;;;;;19.01;91.03;101416.06;5024890;28;20041;-63
2023/06/29 05:50:51;;;;;;;43.13;27.38;;;;;;;19.03;91.17;101416.69;5021715;28;20037;-63
2023/06/29 05:53:16;;;;;;;40.70;28.40;;;;;;;19.04;91.01;101418.34;5024229;28;20112;-63
2023/06/29 05:55:42;;;;;;;42.90;27.55;;;;;;;19.06;90.78;101424.34;5017147;28;20026;-63
2023/06/29 05:58:07;;;;;;;46.03;28.50;;;;;;;19.07;90.83;101420.59;5019945;28;20499;-63
2023/06/29 06:00:32;;;;;;;40.05;27.23;;;;;;;19.08;90.53;101423.13;5024777;28;20029;-63
2023/06/29 06:02:57;;;;;;;45.55;28.08;;;;;;;19.11;90.45;101421.88;5019500;28;20572;-63
2023/06/29 06:05:23;;;;;;;42.40;27.88;;;;;;;19.13;90.23;101419.78;5026305;28;20025;-63
2023/06/29 06:07:48;;;;;;;40.70;26.88;;;;;;;19.14;89.79;101424.97;5026191;28;20018;-63
2023/06/29 06:10:13;;;;;;;40.20;27.48;;;;;;;19.17;89.46;101413.75;5025418;28;20029;-63
2023/06/29 06:12:39;;;;;;;41.15;26.15;;;;;;;19.19;89.10;101422.44;5022481;28;20025;-63
2023/06/29 06:15:06;;;;;;;40.22;26.33;;;;;;;19.22;88.98;101418.50;5020061;28;20099;-63
2023/06/29 06:17:31;;;;;;;43.60;27.08;;;;;;;19.26;88.87;101422.41;5027666;28;20150;-63
2023/06/29 06:19:56;;;;;;;40.88;25.95;;;;;;;19.29;88.89;101423.84;5013393;28;20057;-64
2023/06/29 06:22:22;;;;;;;38.95;26.02;;;;;;;19.33;88.60;101420.50;5019981;28;20025;-63
2023/06/29 06:24:47;;;;;;;39.38;25.77;;;;;;;19.37;88.75;101423.59;5021198;28;20029;-63
2023/06/29 06:27:12;;;;;;;36.83;23.67;;;;;;;19.37;88.24;101419.06;5019375;28;20022;-64
2023/06/29 06:29:38;;;;;;;39.08;25.15;;;;;;;19.41;87.80;101422.16;5027918;28;20029;-63
2023/06/29 06:32:04;;;;;;;33.25;23.23;;;;;;;19.41;87.24;101422.97;5019353;28;20095;-63
2023/06/29 06:34:30;;;;;;;36.17;23.40;;;;;;;19.43;86.81;101415.50;5021592;28;20083;-63
2023/06/29 06:36:57;;;;;;;33.10;23.08;;;;;;;19.46;86.67;101422.34;5025023;28;20023;-63
2023/06/29 06:39:23;;;;;;;32.00;22.15;;;;;;;19.46;86.25;101419.63;5023184;28;20033;-63
2023/06/29 06:41:48;;;;;;;31.02;22.17;;;;;;;19.48;85.86;101422.94;5029693;28;20505;-63
2023/06/29 06:44:14;;;;;;;32.17;21.88;;;;;;;19.50;85.19;101421.69;5023663;28;20017;-63
2023/06/29 06:46:39;;;;;;;31.10;20.38;;;;;;;19.55;84.98;101412.97;5021240;28;20099;-63
2023/06/29 06:49:04;;;;;;;33.50;21.73;;;;;;;19.63;85.03;101419.97;5019635;28;20040;-64
2023/06/29 06:51:29;;;;;;;30.55;21.05;;;;;;;19.75;85.34;101426.34;5021909;28;20482;-63
2023/06/29 06:53:55;;;;;;;32.22;20.55;;;;;;;19.81;84.85;101422.78;5024632;28;20017;-63
2023/06/29 06:56:22;;;;;;;29.40;19.98;;;;;;;19.89;84.33;101430.59;5020392;28;21589;-64
2023/06/29 06:58:47;;;;;;;28.58;19.05;;;;;;;19.92;83.34;101422.06;5022252;28;20083;-63
2023/06/29 07:01:13;;;;;;;29.15;19.88;;;;;;;19.93;83.01;101425.59;5021213;28;20053;-63
2023/06/29 07:03:38;;;;;;;28.73;19.20;;;;;;;19.94;82.90;101419.97;5019923;28;20021;-63
2023/06/29 07:06:04;;;;;;;29.15;20.45;;;;;;;20.01;82.28;101418.09;5023616;28;20107;-63
2023/06/29 07:08:30;;;;;;;28.63;19.80;;;;;;;20.13;82.72;101420.06;5027005;28;20049;-63
2023/06/29 07:10:55;;;;;;;29.83;19.85;;;;;;;20.24;82.45;101417.50;5020127;28;20025;-63
2023/06/29 07:13:20;;;;;;;29.17;19.35;;;;;;;20.23;81.13;101420.38;5018599;28;20394;-63
2023/06/29 07:15:46;;;;;;;29.20;20.13;;;;;;;20.28;81.09;101420.56;5021059;28;20414;-63
2023/06/29 07:18:11;;;;;;;31.98;20.40;;;;;;;20.28;80.46;101418.72;5018479;28;20037;-63
2023/06/29 07:20:37;;;;;;;33.40;20.27;;;;;;;20.32;80.07;101419.09;5025167;28;20034;-63
2023/06/29 07:23:02;;;;;;;31.38;19.75;;;;;;;20.36;79.54;101417.59;5015729;28;20105;-63
2023/06/29 07:25:28;;;;;;;29.60;19.85;;;;;;;20.41;79.71;101421.31;5018483;28;20026;-63
2023/06/29 07:27:54;;;;;;;33.22;20.55;;;;;;;20.47;79.29;101408.78;5019503;28;20018;-63
2023/06/29 07:30:19;;;;;;;31.52;20.88;;;;;;;20.52;79.06;101417.03;5018393;28;20036;-63
2023/06/29 07:32:44;;;;;;;32.22;20.65;;;;;;;20.53;78.58;101412.47;5015558;28;20030;-63
2023/06/29 07:35:10;;;;;;;31.25;19.83;;;;;;;20.66;78.81;101401.56;5018460;28;20502;-63
2023/06/29 07:37:35;;;;;;;29.67;19.58;;;;;;;20.71;78.25;101407.13;5027104;28;20049;-63
2023/06/29 07:40:02;;;;;;;28.83;20.27;;;;;;;20.73;77.56;101407.72;5018375;28;20187;-64
2023/06/29 07:42:27;;;;;;;30.98;19.02;;;;;;;20.80;77.10;101405.75;5021109;28;20571;-63
2023/06/29 07:44:52;;;;;;;30.77;19.10;;;;;;;20.85;75.79;101405.94;5022844;28;20108;-63
2023/06/29 07:47:18;;;;;;;28.25;19.52;;;;;;;20.88;74.95;101407.38;5020339;28;20782;-63
2023/06/29 07:49:43;;;;;;;28.42;19.77;;;;;;;20.97;74.92;101412.22;5025052;28;20040;-63
2023/06/29 07:52:08;;;;;;;31.65;19.98;;;;;;;21.02;74.02;101406.97;5019339;28;20025;-63
2023/06/29 07:54:33;;;;;;;34.22;20.98;;;;;;;21.03;73.22;101405.91;5018594;28;20394;-63
2023/06/29 07:56:58;;;;;;;31.42;19.30;;;;;;;21.09;73.35;101408.75;5018867;28;20025;-63
2023/06/29 07:59:24;;;;;;;28.90;19.85;;;;;;;21.15;72.90;101402.47;5026968;28;20044;-63
2023/06/29 08:01:49;;;;;;;30.20;20.05;;;;;;;21.16;72.52;101407.66;5017250;28;20076;-62
2023/06/29 08:04:15;;;;;;;30.50;20.00;;;;;;;21.24;72.53;101399.25;5016648;28;20033;-64
2023/06/29 08:06:43;;;;;;;29.85;19.95;;;;;;;21.30;72.55;101400.22;5020602;28;20046;-63
2023/06/29 08:09:09;;;;;;;31.15;20.00;;;;;;;21.39;72.96;101398.03;5027283;28;20029;-63
2023/06/29 08:11:34;;;;;;;32.50;20.13;;;;;;;21.40;72.04;101395.13;5024686;28;20461;-63
2023/06/29 08:14:00;;;;;;;30.15;20.33;;;;;;;21.48;71.81;101392.09;5025517;28;20017;-63
2023/06/29 08:16:25;;;;;;;33.88;21.58;;;;;;;21.53;72.18;101394.09;5024157;28;20026;-63
2023/06/29 08:18:50;;;;;;;31.27;20.55;;;;;;;21.65;72.06;101394.94;5027932;28;20033;-63
2023/06/29 08:21:15;;;;;;;32.10;20.30;;;;;;;21.71;72.26;101394.06;5024283;28;20021;-63
2023/06/29 08:23:41;;;;;;;29.58;20.17;;;;;;;21.77;72.19;101397.72;5027821;28;20038;-63
2023/06/29 08:26:06;;;;;;;28.90;20.15;;;;;;;21.71;70.06;101396.75;5027503;28;20048;-63
2023/06/29 08:28:31;;;;;;;30.13;20.45;;;;;;;21.67;70.37;101395.53;5025116;28;20059;-63
2023/06/29 08:30:57;;;;;;;31.50;21.02;;;;;;;21.67;70.97;101403.66;5024775;28;20526;-63
2023/06/29 08:33:23;;;;;;;31.05;20.60;;;;;;;21.67;70.76;101398.25;5022760;28;20021;-63
2023/06/29 08:35:52;;;;;;;30.40;20.67;;;;;;;21.64;69.54;101404.13;5022488;28;20407;-63
2023/06/29 08:38:17;;;;;;;32.40;21.77;;;;;;;21.63;69.76;101392.47;5026599;28;20025;-64
2023/06/29 08:40:46;;;;;;;31.67;20.55;;;;;;;21.67;69.58;101398.25;5015048;28;20037;-63
2023/06/29 08:43:11;;;;;;;28.95;20.70;;;;;;;21.71;69.52;101399.47;5023897;28;20045;-63
2023/06/29 08:45:37;;;;;;;34.70;22.10;;;;;;;21.73;68.70;101405.47;5024935;28;20021;-63
2023/06/29 08:48:03;;;;;;;29.75;20.15;;;;;;;21.73;68.12;101394.66;5020576;28;20479;-63
2023/06/29 08:50:30;;;;;;;30.42;20.20;;;;;;;21.73;68.31;101397.34;5030417;28;20033;-63
2023/06/29 08:52:56;;;;;;;29.48;20.45;;;;;;;21.76;68.40;101398.75;5019960;28;20029;-63
2023/06/29 08:55:22;;;;;;;36.53;20.40;;;;;;;21.82;68.06;101406.78;5024363;28;20105;-63
2023/06/29 08:57:48;;;;;;;30.70;20.27;;;;;;;21.94;68.46;101404.09;5026616;28;20075;-63
2023/06/29 09:00:14;;;;;;;33.17;21.15;;;;;;;22.02;68.82;101400.25;5014728;28;20053;-63
2023/06/29 09:02:39;;;;;;;29.00;20.30;;;;;;;21.99;67.43;101387.19;5022469;28;20033;-63
2023/06/29 09:05:05;;;;;;;28.80;20.60;;;;;;;22.04;67.11;101398.16;5020494;28;20431;-63
2023/06/29 09:07:31;;;;;;;32.17;19.88;;;;;;;22.10;67.27;101395.34;5024351;28;20047;-63
2023/06/29 09:09:57;;;;;;;34.35;21.08;;;;;;;22.17;66.91;101395.22;5020425;28;20022;-64
2023/06/29 09:12:22;;;;;;;32.35;21.00;;;;;;;22.37;66.78;101387.59;5022558;28;20032;-63
2023/06/29 09:14:48;;;;;;;35.85;21.00;;;;;;;22.39;65.24;101393.59;5018718;28;20442;-63
2023/06/29 09:17:14;;;;;;;30.40;20.50;;;;;;;22.40;64.55;101389.81;5019646;28;20052;-63
2023/06/29 09:19:43;;;;;;;29.33;20.25;;;;;;;22.47;65.65;101395.13;5018485;28;20402;-63
2023/06/29 09:22:09;;;;;;;;;;;;;;;22.47;64.17;101385.09;5024505;28;20025;-63
2023/06/29 09:24:35;;;;;;;31.37;20.87;;;;;;;22.42;64.36;101384.19;5026790;28;19966;-63
2023/06/29 09:27:01;;;;;;;28.20;20.00;;;;;;;22.41;64.14;101391.47;5017056;28;20642;-63
2023/06/29 09:29:26;;;;;;;30.13;20.10;;;;;;;22.38;63.79;101388.41;5023135;28;20022;-63
2023/06/29 09:31:56;;;;;;;28.02;19.23;;;;;;;22.31;63.29;101385.84;5018997;28;20099;-63
2023/06/29 09:34:25;;;;;;;31.30;20.15;;;;;;;22.31;64.08;101385.84;5022995;28;20041;-63
2023/06/29 09:36:51;;;;;;;28.85;19.80;;;;;;;22.36;63.63;101393.25;5021212;28;20080;-63
2023/06/29 09:39:17;;;;;;;32.25;20.77;;;;;;;22.31;63.66;101385.84;5024524;28;20052;-63
2023/06/29 09:41:53;;;;;;;30.85;21.20;;;;;;;22.21;62.68;101390.97;5027549;28;20021;-64
2023/06/29 09:44:22;;;;;;;32.00;20.60;;;;;;;22.11;62.55;101390.75;5027688;28;20140;-63
2023/06/29 09:46:47;;;;;;;31.27;20.13;;;;;;;22.07;63.85;101384.16;5021987;28;20049;-63
2023/06/29 09:49:14;;;;;;;35.22;20.65;;;;;;;22.05;64.01;101384.41;5019727;28;20064;-63
2023/06/29 09:51:39;;;;;;;29.13;20.05;;;;;;;21.99;63.75;101392.59;5023581;28;20032;-63
2023/06/29 09:54:05;;;;;;;30.90;20.20;;;;;;;21.96;63.92;101393.84;5027678;28;20033;-63
2023/06/29 09:56:33;;;;;;;31.10;20.48;;;;;;;21.96;64.46;101393.84;5019348;28;20504;-63
2023/06/29 09:59:01;;;;;;;32.85;21.42;;;;;;;21.96;63.97;101391.16;5027777;28;20037;-63
2023/06/29 10:01:28;;;;;;;31.23;20.98;;;;;;;21.94;64.29;101385.16;5022324;28;20039;-63
2023/06/29 10:03:54;;;;;;;30.48;20.77;;;;;;;21.99;64.70;101384.47;5026091;28;20995;-64
2023/06/29 10:06:21;;;;;;;29.80;20.88;;;;;;;22.02;65.01;101382.13;5023031;28;20041;-63
2023/06/29 10:08:53;;;;;;;33.60;22.05;;;;;;;22.05;65.07;101378.97;5023902;28;20176;-63
2023/06/29 10:11:21;;;;;;;32.55;21.42;;;;;;;22.06;64.50;101382.50;5012724;28;20037;-63
2023/06/29 10:13:49;;;;;;;32.95;22.77;;;;;;;22.10;64.83;101383.69;5021012;28;20025;-64
2023/06/29 10:16:17;;;;;;;34.45;22.30;;;;;;;22.13;65.25;101380.50;5018606;28;20056;-63
2023/06/29 10:18:46;;;;;;;35.70;22.00;;;;;;;22.20;65.38;101379.34;5026844;28;20518;-63
2023/06/29 10:21:11;;;;;;;31.90;21.67;;;;;;;22.20;64.47;101382.03;5014404;28;20018;-63
2023/06/29 10:23:41;;;;;;;37.80;23.02;;;;;;;22.27;65.25;101384.66;5023258;28;20167;-63
2023/06/29 10:26:09;;;;;;;32.72;21.75;;;;;;;22.29;64.67;101387.13;5024542;28;20018;-63
2023/06/29 10:28:35;;;;;;;33.72;21.77;;;;;;;22.27;64.29;101384.66;5026100;28;20045;-63
2023/06/29 10:31:00;;;;;;;34.20;22.05;;;;;;;22.23;64.51;101383.47;5024710;28;20021;-63
2023/06/29 10:33:26;;;;;;;36.03;21.90;;;;;;;22.21;64.39;101375.56;5026175;28;20514;-63
2023/06/29 10:36:01;;;;;;;33.35;22.42;;;;;;;22.24;65.13;101385.09;5018107;28;20033;-63
2023/06/29 10:38:31;;;;;;;34.83;22.52;;;;;;;22.25;64.84;101376.75;5023678;28;20036;-63
2023/06/29 10:40:56;;;;;;;39.25;22.85;;;;;;;22.27;65.00;101373.84;5027347;28;20020;-63
2023/06/29 10:43:25;;;;;;;34.20;22.25;;;;;;;22.28;65.07;101370.06;5027935;28;20650;-63
2023/06/29 10:45:50;;;;;;;35.33;22.70;;;;;;;22.30;64.96;101369.84;5026843;28;20025;-63
2023/06/29 10:48:17;;;;;;;32.53;21.52;;;;;;;22.32;65.15;101373.94;5022277;28;20156;-63
2023/06/29 10:50:47;;;;;;;35.28;23.40;;;;;;;22.28;64.59;101380.91;5026778;28;20053;-63
2023/06/29 10:53:17;;;;;;;35.67;22.85;;;;;;;22.28;64.87;101380.91;5025441;28;20116;-63
2023/06/29 10:55:45;;;;;;;32.55;22.17;;;;;;;22.38;65.63;101374.88;5027308;28;20407;-63
2023/06/29 10:58:15;;;;;;;38.53;22.70;;;;;;;22.42;64.54;101376.88;5024075;28;20543;-63
2023/06/29 11:00:40;;;;;;;37.25;23.02;;;;;;;22.45;64.68;101368.28;5027700;28;20033;-63
2023/06/29 11:03:08;;;;;;;32.05;21.98;;;;;;;22.52;64.97;101382.50;5021936;28;20022;-63